Time;durP1;ratioP1;P1;durP2;ratioP2;P2;SDS_P1;SDS_P2;PMS_P1;PMS_P2;Temp;Humidity;BMP_temperature;BMP_pressure;BME280_temperature;BME280_humidity;BME280_pressure;Samples;Min_cycle;Max_cycle;Signal;HPM_P1;HPM_P2
2023/09/19 00:00:19;;;;;;;28.97;27.77;;;24.20;94.80;;;;;;5071691;28;20471;-53
2023/09/19 00:02:48;;;;;;;28.60;27.40;;;24.20;94.80;;;;;;5062989;28;20456;-50
2023/09/19 00:05:15;;;;;;;29.37;28.07;;;24.10;94.70;;;;;;5071159;28;20562;-52
2023/09/19 00:07:42;;;;;;;29.83;28.63;;;24.10;94.70;;;;;;5071336;28;20961;-57
2023/09/19 00:10:10;;;;;;;29.70;28.30;;;24.10;94.70;;;;;;5071600;28;20467;-58
2023/09/19 00:12:37;;;;;;;29.53;28.43;;;24.10;94.50;;;;;;5057364;28;20449;-52
2023/09/19 00:15:06;;;;;;;30.13;28.73;;;24.10;94.50;;;;;;5069597;28;20455;-58
2023/09/19 00:17:34;;;;;;;33.17;31.87;;;24.10;94.60;;;;;;5071550;28;20505;-52
2023/09/19 00:20:07;;;;;;;29.00;27.90;;;24.10;94.50;;;;;;5071375;28;20833;-58
2023/09/19 00:22:34;;;;;;;29.70;28.20;;;24.10;94.50;;;;;;5062839;28;20456;-57
2023/09/19 00:25:02;;;;;;;31.23;29.63;;;24.10;94.50;;;;;;5070956;28;20510;-58
2023/09/19 00:27:29;;;;;;;30.77;29.30;;;24.10;94.40;;;;;;5071109;28;20492;-55
2023/09/19 00:29:57;;;;;;;29.43;28.23;;;24.00;94.20;;;;;;5071399;28;20552;-57
2023/09/19 00:32:23;;;;;;;30.70;29.30;;;24.00;94.10;;;;;;5057799;28;20502;-55
2023/09/19 00:34:50;;;;;;;29.73;28.40;;;24.00;94.10;;;;;;5054353;28;20494;-58
2023/09/19 00:37:19;;;;;;;30.20;29.00;;;24.00;94.00;;;;;;5071291;28;20483;-58
2023/09/19 00:39:46;;;;;;;29.70;28.50;;;24.00;94.00;;;;;;5071090;28;20454;-53
2023/09/19 00:42:21;;;;;;;29.23;28.03;;;24.00;94.00;;;;;;5063621;28;20995;-51
2023/09/19 00:44:51;;;;;;;31.27;29.87;;;23.90;94.00;;;;;;5070904;28;20913;-56
2023/09/19 00:47:18;;;;;;;29.93;28.63;;;23.90;93.90;;;;;;5071266;28;20447;-55
2023/09/19 00:49:48;;;;;;;31.40;29.97;;;23.90;93.90;;;;;;5071180;28;20829;-54
2023/09/19 00:52:19;;;;;;;30.13;28.83;;;23.90;93.90;;;;;;5063439;28;20456;-50
2023/09/19 00:54:47;;;;;;;29.50;28.30;;;23.90;93.80;;;;;;5070468;28;20464;-50
2023/09/19 00:57:17;;;;;;;30.50;29.30;;;23.90;93.70;;;;;;5071008;28;20470;-53
2023/09/19 00:59:44;;;;;;;29.93;28.80;;;23.90;93.70;;;;;;5070910;28;20481;-52
2023/09/19 01:02:14;;;;;;;32.13;30.93;;;23.90;93.70;;;;;;5064380;28;20962;-55
2023/09/19 01:04:42;;;;;;;29.90;28.60;;;23.90;93.60;;;;;;5060789;28;20480;-55
2023/09/19 01:07:10;;;;;;;29.17;28.07;;;23.90;93.60;;;;;;5071044;28;20447;-53
2023/09/19 01:09:38;;;;;;;29.57;28.20;;;23.90;93.50;;;;;;5070973;28;20449;-52
2023/09/19 01:12:09;;;;;;;31.40;30.00;;;23.80;93.40;;;;;;5061330;28;20449;-50
2023/09/19 01:14:47;;;;;;;30.53;29.23;;;23.80;93.40;;;;;;5067307;28;20487;-50
2023/09/19 01:17:22;;;;;;;32.50;30.87;;;23.80;93.40;;;;;;5070925;28;20443;-51
2023/09/19 01:20:18;;;;;;;30.90;29.80;;;23.80;93.40;;;;;;5054437;28;20905;-55
2023/09/19 01:22:57;;;;;;;31.00;29.67;;;23.80;93.40;;;;;;5071092;28;20492;-56
2023/09/19 01:26:05;;;;;;;30.73;29.27;;;23.80;93.40;;;;;;5074369;28;20997;-56
2023/09/19 01:28:40;;;;;;;30.33;29.13;;;23.80;93.30;;;;;;5074326;28;20887;-54
2023/09/19 01:31:12;;;;;;;29.40;28.30;;;23.80;93.40;;;;;;5069578;28;20446;-54
2023/09/19 01:34:00;;;;;;;29.53;28.23;;;23.70;93.30;;;;;;5073920;28;20487;-56
2023/09/19 01:36:34;;;;;;;30.17;28.77;;;23.70;93.30;;;;;;5074420;28;20977;-54
2023/09/19 01:39:05;;;;;;;29.23;27.90;;;23.70;93.20;;;;;;5074352;28;20439;-56
2023/09/19 01:41:55;;;;;;;31.30;30.10;;;23.70;93.10;;;;;;5069665;28;20458;-55
2023/09/19 01:44:32;;;;;;;30.23;28.80;;;23.70;93.10;;;;;;5074054;28;20467;-58
2023/09/19 01:47:10;;;;;;;32.37;30.43;;;23.70;93.10;;;;;;5060261;28;20516;-54
2023/09/19 01:49:46;;;;;;;30.57;29.33;;;23.70;93.10;;;;;;5072555;28;20446;-50
2023/09/19 01:52:16;;;;;;;29.97;28.67;;;23.70;93.10;;;;;;5073975;28;20524;-50
2023/09/19 01:54:50;;;;;;;29.87;28.50;;;23.70;93.10;;;;;;5073578;28;20455;-50
2023/09/19 01:57:23;;;;;;;31.30;30.00;;;23.60;93.00;;;;;;5073857;28;20450;-50
2023/09/19 01:59:56;;;;;;;32.67;30.80;;;23.60;93.00;;;;;;5057406;28;20475;-50
2023/09/19 02:02:26;;;;;;;31.00;29.67;;;23.70;93.10;;;;;;5074041;28;20440;-52
2023/09/19 02:04:53;;;;;;;31.37;30.13;;;23.60;93.00;;;;;;5057763;28;21029;-51
2023/09/19 02:07:20;;;;;;;30.47;29.17;;;23.60;92.90;;;;;;5073852;28;20929;-53
2023/09/19 02:09:47;;;;;;;31.23;30.03;;;23.60;92.90;;;;;;5064644;28;20471;-52
2023/09/19 02:12:15;;;;;;;30.73;29.53;;;23.60;92.90;;;;;;5073570;28;20984;-52
2023/09/19 02:14:42;;;;;;;31.40;30.20;;;23.60;92.90;;;;;;5073308;28;20459;-52
2023/09/19 02:17:11;;;;;;;30.93;29.67;;;23.60;92.80;;;;;;5073531;28;20482;-51
2023/09/19 02:19:40;;;;;;;31.17;29.83;;;23.60;92.80;;;;;;5056999;28;20449;-52
2023/09/19 02:22:10;;;;;;;30.13;28.87;;;23.60;92.80;;;;;;5073447;28;20443;-52
2023/09/19 02:24:37;;;;;;;32.70;31.30;;;23.60;92.60;;;;;;5072858;28;20896;-52
2023/09/19 02:27:05;;;;;;;30.17;28.97;;;23.50;92.60;;;;;;5073329;28;20471;-53
2023/09/19 02:29:34;;;;;;;31.07;29.37;;;23.50;92.60;;;;;;5057906;28;20456;-55
2023/09/19 02:32:01;;;;;;;30.70;29.30;;;23.50;92.60;;;;;;5073363;28;20873;-53
2023/09/19 02:34:28;;;;;;;30.23;29.03;;;23.50;92.50;;;;;;5072407;28;21062;-52
2023/09/19 02:36:57;;;;;;;31.50;29.90;;;23.50;92.40;;;;;;5073266;28;20436;-54
2023/09/19 02:39:24;;;;;;;32.10;30.70;;;23.50;92.40;;;;;;5061553;28;20452;-51
2023/09/19 02:41:51;;;;;;;31.63;30.33;;;23.50;92.30;;;;;;5073240;28;20435;-50
2023/09/19 02:44:19;;;;;;;31.20;29.70;;;23.50;92.10;;;;;;5072738;28;20459;-56
2023/09/19 02:46:47;;;;;;;30.90;29.30;;;23.50;92.10;;;;;;5072798;28;20490;-56
2023/09/19 02:49:14;;;;;;;31.30;30.00;;;23.50;92.00;;;;;;5066446;28;20445;-53
2023/09/19 02:51:41;;;;;;;30.53;29.13;;;23.50;92.00;;;;;;5071350;28;20993;-49
2023/09/19 02:54:10;;;;;;;31.00;29.50;;;23.40;91.90;;;;;;5072636;28;20464;-55
2023/09/19 02:56:37;;;;;;;29.40;28.20;;;23.40;91.80;;;;;;5072641;28;20469;-56
2023/09/19 02:59:05;;;;;;;30.23;29.03;;;23.40;91.80;;;;;;5067313;28;20512;-52
2023/09/19 03:01:33;;;;;;;31.40;30.00;;;23.50;91.80;;;;;;5072731;28;20481;-55
2023/09/19 03:04:00;;;;;;;32.17;30.97;;;23.40;91.70;;;;;;5072323;28;20503;-55
2023/09/19 03:06:27;;;;;;;34.00;32.37;;;23.40;91.70;;;;;;5072402;28;20480;-55
2023/09/19 03:08:56;;;;;;;32.10;30.70;;;23.40;91.70;;;;;;5067335;28;20444;-56
2023/09/19 03:11:25;;;;;;;33.30;31.50;;;23.40;91.40;;;;;;5072486;28;20935;-57
2023/09/19 03:13:53;;;;;;;31.60;30.30;;;23.40;91.40;;;;;;5072192;28;20954;-55
2023/09/19 03:16:21;;;;;;;32.90;31.60;;;23.40;91.30;;;;;;5072253;28;20439;-56
2023/09/19 03:18:48;;;;;;;34.00;32.60;;;23.40;91.30;;;;;;5067274;28;20524;-53
2023/09/19 03:21:16;;;;;;;32.00;30.57;;;23.40;91.30;;;;;;5072401;28;20493;-57
2023/09/19 03:23:45;;;;;;;32.73;31.17;;;23.40;91.30;;;;;;5071540;28;20545;-55
2023/09/19 03:26:15;;;;;;;33.07;31.57;;;23.40;91.20;;;;;;5072131;28;20486;-55
2023/09/19 03:28:45;;;;;;;31.30;30.10;;;23.30;91.20;;;;;;5067330;28;20456;-51
2023/09/19 03:31:12;;;;;;;33.03;31.53;;;23.40;91.20;;;;;;5072077;28;20447;-52
2023/09/19 03:33:40;;;;;;;31.43;30.20;;;23.30;91.10;;;;;;5071572;28;20472;-56
2023/09/19 03:36:07;;;;;;;31.47;30.00;;;23.30;91.00;;;;;;5071987;28;20539;-52
2023/09/19 03:38:35;;;;;;;31.37;30.03;;;23.30;91.00;;;;;;5067384;28;20516;-56
2023/09/19 03:41:02;;;;;;;32.87;31.47;;;23.30;90.90;;;;;;5071845;28;20454;-55
2023/09/19 03:43:28;;;;;;;34.27;32.60;;;23.30;90.90;;;;;;5071573;28;20498;-54
2023/09/19 03:45:57;;;;;;;32.87;31.07;;;23.30;90.90;;;;;;5070804;28;20487;-52
2023/09/19 03:48:24;;;;;;;35.93;34.23;;;23.30;90.80;;;;;;5067653;28;20448;-55
2023/09/19 03:50:51;;;;;;;32.63;31.43;;;23.20;90.70;;;;;;5071623;28;20513;-53
2023/09/19 03:53:17;;;;;;;34.30;32.70;;;23.30;90.70;;;;;;5071278;28;20502;-55
2023/09/19 03:55:47;;;;;;;33.20;31.83;;;23.30;90.70;;;;;;5070158;28;20481;-51
2023/09/19 03:58:14;;;;;;;33.40;31.70;;;23.30;90.70;;;;;;5069703;28;20454;-53
2023/09/19 04:00:41;;;;;;;37.30;35.90;;;23.20;90.60;;;;;;5071443;28;20952;-56
2023/09/19 04:03:10;;;;;;;36.37;34.97;;;23.20;90.60;;;;;;5071296;28;20882;-53
2023/09/19 04:05:37;;;;;;;37.00;35.40;;;23.20;90.50;;;;;;5070134;28;20479;-56
2023/09/19 04:08:05;;;;;;;41.00;39.13;;;23.20;90.50;;;;;;5071326;28;20463;-55
2023/09/19 04:10:31;;;;;;;37.57;35.97;;;23.20;90.40;;;;;;5071412;28;20467;-55
2023/09/19 04:12:58;;;;;;;39.27;37.67;;;23.20;90.40;;;;;;5071084;28;20470;-55
2023/09/19 04:15:25;;;;;;;38.73;36.93;;;23.20;90.40;;;;;;5071481;28;20835;-50
2023/09/19 04:17:52;;;;;;;37.53;36.00;;;23.20;90.40;;;;;;5062294;28;20479;-51
2023/09/19 04:20:22;;;;;;;37.03;35.43;;;23.20;90.40;;;;;;5071248;28;20866;-55
2023/09/19 04:22:49;;;;;;;36.60;34.80;;;23.20;90.30;;;;;;5071374;28;20471;-54
2023/09/19 04:25:16;;;;;;;37.60;36.10;;;23.20;90.30;;;;;;5064580;28;20498;-54
2023/09/19 04:27:45;;;;;;;38.60;36.90;;;23.10;90.20;;;;;;5071370;28;20471;-48
2023/09/19 04:30:12;;;;;;;37.53;36.13;;;23.20;90.20;;;;;;5071184;28;20443;-47
2023/09/19 04:32:40;;;;;;;37.00;35.60;;;23.10;90.30;;;;;;5071134;28;20513;-46
2023/09/19 04:35:08;;;;;;;35.30;33.90;;;23.10;90.10;;;;;;5055575;28;20992;-48
2023/09/19 04:37:38;;;;;;;36.50;35.00;;;23.10;89.70;;;;;;5044114;28;20517;-49
2023/09/19 04:40:12;;;;;;;38.63;36.87;;;23.00;89.20;;;;;;5071570;28;20476;-48
2023/09/19 04:42:39;;;;;;;38.70;37.00;;;22.90;89.50;;;;;;5071222;28;20551;-47
2023/09/19 04:45:08;;;;;;;41.63;40.07;;;23.00;89.70;;;;;;5070718;28;20495;-50
2023/09/19 04:47:35;;;;;;;42.40;40.80;;;22.90;89.80;;;;;;5070798;28;20471;-48
2023/09/19 04:50:03;;;;;;;43.30;41.33;;;23.00;90.00;;;;;;5070953;28;20467;-47
2023/09/19 04:52:32;;;;;;;39.47;37.67;;;23.00;90.00;;;;;;5070788;28;20509;-52
2023/09/19 04:55:00;;;;;;;37.60;36.10;;;23.00;90.00;;;;;;5070644;28;20877;-48
2023/09/19 04:57:27;;;;;;;36.77;35.37;;;22.90;89.60;;;;;;5072158;28;20463;-49
2023/09/19 04:59:54;;;;;;;39.00;37.50;;;23.00;89.70;;;;;;5074819;28;20535;-49
2023/09/19 05:02:22;;;;;;;36.20;34.80;;;23.00;89.60;;;;;;5074896;28;20461;-47
2023/09/19 05:04:49;;;;;;;38.17;36.57;;;23.00;89.70;;;;;;5074339;28;20462;-48
2023/09/19 05:07:17;;;;;;;36.60;35.00;;;23.00;89.70;;;;;;5074721;28;20479;-48
2023/09/19 05:09:43;;;;;;;41.30;39.50;;;22.90;89.50;;;;;;5074792;28;20447;-47
2023/09/19 05:12:12;;;;;;;39.07;37.20;;;22.90;89.50;;;;;;5074634;28;20487;-47
2023/09/19 05:14:40;;;;;;;40.23;38.67;;;22.90;89.60;;;;;;5074240;28;20495;-47
2023/09/19 05:17:07;;;;;;;38.00;36.50;;;22.90;89.60;;;;;;5074525;28;20529;-50
2023/09/19 05:19:35;;;;;;;37.00;35.60;;;22.90;89.60;;;;;;5074380;28;20569;-47
2023/09/19 05:22:04;;;;;;;37.83;36.10;;;22.90;89.60;;;;;;5074379;28;20449;-47
2023/09/19 05:24:31;;;;;;;37.83;36.23;;;22.90;89.50;;;;;;5074038;28;20478;-47
2023/09/19 05:26:58;;;;;;;37.50;35.80;;;22.90;89.30;;;;;;5058115;28;20986;-47
2023/09/19 05:29:26;;;;;;;36.73;35.23;;;22.90;89.30;;;;;;5074322;28;20446;-48
2023/09/19 05:31:54;;;;;;;39.40;37.70;;;22.90;89.20;;;;;;5074135;28;20486;-47
2023/09/19 05:34:21;;;;;;;37.63;36.13;;;22.90;89.10;;;;;;5073837;28;20495;-50
2023/09/19 05:36:49;;;;;;;39.60;37.57;;;22.90;89.10;;;;;;5074101;28;20471;-47
2023/09/19 05:39:16;;;;;;;38.20;36.40;;;22.90;89.00;;;;;;5073994;28;20443;-49
2023/09/19 05:41:42;;;;;;;40.37;38.50;;;22.90;88.90;;;;;;5073836;28;20475;-48
2023/09/19 05:44:09;;;;;;;38.60;36.83;;;22.90;88.80;;;;;;5073693;28;20529;-50
2023/09/19 05:46:38;;;;;;;37.50;36.00;;;22.90;88.70;;;;;;5073853;28;20503;-47
2023/09/19 05:49:04;;;;;;;37.53;35.90;;;22.90;88.60;;;;;;5073939;28;20475;-48
2023/09/19 05:51:31;;;;;;;38.80;36.90;;;22.80;88.50;;;;;;5074024;28;20504;-50
2023/09/19 05:53:58;;;;;;;37.00;35.33;;;22.90;88.60;;;;;;5073590;28;20489;-47
2023/09/19 05:56:25;;;;;;;36.70;35.00;;;22.90;88.50;;;;;;5073930;28;20467;-47
2023/09/19 05:58:53;;;;;;;37.40;35.53;;;22.80;88.50;;;;;;5073699;28;20555;-48
2023/09/19 06:01:20;;;;;;;37.77;36.17;;;22.80;88.50;;;;;;5073721;28;20443;-49
2023/09/19 06:03:48;;;;;;;37.63;35.97;;;22.80;88.50;;;;;;5073323;28;20494;-47
2023/09/19 06:06:15;;;;;;;37.70;36.00;;;22.80;88.50;;;;;;5073568;28;20506;-47
2023/09/19 06:08:44;;;;;;;38.03;36.27;;;22.80;88.40;;;;;;5072843;28;20471;-50
2023/09/19 06:11:11;;;;;;;38.23;36.53;;;22.80;88.40;;;;;;5073519;28;20878;-47
2023/09/19 06:13:39;;;;;;;39.37;37.80;;;22.80;88.30;;;;;;5073196;28;20549;-50
2023/09/19 06:16:06;;;;;;;37.80;36.20;;;22.80;88.30;;;;;;5073471;28;20514;-47
2023/09/19 06:18:34;;;;;;;36.77;35.20;;;22.80;88.40;;;;;;5073548;28;20476;-47
2023/09/19 06:21:05;;;;;;;41.00;38.80;;;22.80;88.40;;;;;;5057399;28;20436;-47
2023/09/19 06:23:32;;;;;;;39.50;37.80;;;22.80;88.40;;;;;;5073129;28;20570;-46
2023/09/19 06:25:59;;;;;;;38.27;36.50;;;22.80;88.50;;;;;;5073338;28;20519;-47
2023/09/19 06:28:27;;;;;;;39.73;38.03;;;22.80;88.40;;;;;;5073182;28;20475;-46
2023/09/19 06:30:55;;;;;;;39.77;38.07;;;22.80;88.40;;;;;;5072993;28;20451;-50
2023/09/19 06:33:22;;;;;;;40.50;38.80;;;22.80;88.40;;;;;;5072927;28;20491;-47
2023/09/19 06:35:51;;;;;;;40.83;39.03;;;22.80;88.40;;;;;;5072974;28;20435;-48
2023/09/19 06:38:19;;;;;;;38.33;36.33;;;22.80;88.40;;;;;;5072785;28;20439;-47
2023/09/19 06:40:46;;;;;;;39.97;38.17;;;22.80;88.60;;;;;;5072852;28;20799;-46
2023/09/19 06:43:14;;;;;;;39.70;38.00;;;22.80;88.60;;;;;;5072611;28;20486;-48
2023/09/19 06:45:42;;;;;;;39.57;37.50;;;22.70;88.50;;;;;;5072702;28;20474;-47
2023/09/19 06:48:10;;;;;;;39.93;38.33;;;22.70;88.60;;;;;;5072907;28;20509;-48
2023/09/19 06:50:37;;;;;;;41.23;39.30;;;22.80;88.80;;;;;;5072482;28;20536;-50
2023/09/19 06:53:04;;;;;;;40.77;38.60;;;22.70;89.50;;;;;;5072634;28;20444;-47
2023/09/19 06:55:32;;;;;;;37.30;35.60;;;22.70;88.60;;;;;;5072861;28;20471;-49
2023/09/19 06:57:59;;;;;;;41.23;39.53;;;22.70;88.60;;;;;;5072815;28;20823;-48
2023/09/19 07:00:28;;;;;;;40.17;37.93;;;22.70;88.80;;;;;;5072559;28;20444;-46
2023/09/19 07:03:00;;;;;;;42.20;40.10;;;22.70;88.90;;;;;;5072260;28;20771;-52
2023/09/19 07:05:28;;;;;;;39.10;37.27;;;22.70;89.00;;;;;;5072422;28;20566;-50
2023/09/19 07:07:56;;;;;;;39.93;38.23;;;22.70;89.00;;;;;;5072272;28;20858;-50
2023/09/19 07:10:25;;;;;;;41.90;40.23;;;22.70;89.20;;;;;;5072292;28;20470;-47
2023/09/19 07:12:58;;;;;;;39.40;37.80;;;22.70;89.20;;;;;;5072230;28;20447;-50
2023/09/19 07:15:25;;;;;;;40.67;38.90;;;22.70;89.30;;;;;;5072463;28;20443;-46
2023/09/19 07:17:53;;;;;;;39.10;37.30;;;22.70;89.40;;;;;;5072055;28;20446;-46
2023/09/19 07:20:21;;;;;;;40.80;38.77;;;22.70;89.50;;;;;;5072220;28;20486;-47
2023/09/19 07:22:48;;;;;;;39.03;37.53;;;22.70;89.50;;;;;;5072073;28;20475;-47
2023/09/19 07:25:15;;;;;;;39.50;37.80;;;22.70;89.60;;;;;;5071968;28;20486;-47
2023/09/19 07:27:42;;;;;;;39.53;37.87;;;22.70;89.60;;;;;;5071845;28;20507;-49
2023/09/19 07:30:12;;;;;;;38.63;36.83;;;22.70;89.80;;;;;;5071953;28;20513;-47
2023/09/19 07:32:40;;;;;;;40.57;38.97;;;22.70;89.80;;;;;;5071776;28;20518;-46
2023/09/19 07:35:08;;;;;;;42.33;40.53;;;22.70;90.00;;;;;;5071732;28;20463;-47
2023/09/19 07:37:36;;;;;;;39.87;38.27;;;22.70;90.00;;;;;;5071931;28;20443;-46
2023/09/19 07:40:06;;;;;;;38.43;36.73;;;22.70;90.00;;;;;;5071837;28;20530;-47
2023/09/19 07:42:36;;;;;;;40.27;38.47;;;22.70;90.00;;;;;;5071879;28;20478;-46
2023/09/19 07:45:04;;;;;;;38.90;37.20;;;22.70;90.10;;;;;;5055377;28;20478;-46
2023/09/19 07:47:32;;;;;;;39.00;37.30;;;22.70;90.10;;;;;;5071575;28;20854;-46
2023/09/19 07:50:00;;;;;;;40.67;38.80;;;22.70;90.10;;;;;;5071557;28;20446;-47
2023/09/19 07:52:27;;;;;;;39.67;37.97;;;22.70;90.10;;;;;;5071642;28;20447;-47
2023/09/19 07:54:54;;;;;;;40.50;38.50;;;22.70;90.10;;;;;;5071188;28;20491;-49
2023/09/19 07:57:21;;;;;;;41.90;40.20;;;22.70;90.10;;;;;;5071671;28;20440;-46
2023/09/19 07:59:49;;;;;;;40.40;38.50;;;22.70;90.10;;;;;;5071519;28;20443;-46
2023/09/19 08:02:16;;;;;;;38.73;37.00;;;22.60;90.10;;;;;;5071534;28;20450;-46
2023/09/19 08:04:46;;;;;;;40.07;38.30;;;22.70;90.10;;;;;;5071089;28;20469;-46
2023/09/19 08:07:13;;;;;;;38.40;36.80;;;22.70;90.20;;;;;;5071277;28;20502;-47
2023/09/19 08:09:40;;;;;;;38.20;36.60;;;22.70;90.20;;;;;;5071452;28;20443;-46
2023/09/19 08:12:10;;;;;;;37.10;35.40;;;22.70;90.20;;;;;;5071375;28;20439;-46
2023/09/19 08:14:37;;;;;;;39.13;37.47;;;22.60;90.20;;;;;;5071129;28;20544;-47
2023/09/19 08:17:05;;;;;;;38.83;37.20;;;22.60;90.10;;;;;;5055017;28;20463;-46
2023/09/19 08:19:32;;;;;;;35.47;33.87;;;22.60;90.10;;;;;;5071283;28;20448;-46
2023/09/19 08:22:01;;;;;;;37.10;35.50;;;22.60;90.10;;;;;;5071066;28;20447;-47
2023/09/19 08:24:29;;;;;;;41.20;38.90;;;22.70;90.20;;;;;;5070964;28;20505;-47
2023/09/19 08:26:56;;;;;;;39.70;37.70;;;22.60;90.10;;;;;;5071107;28;20849;-46
2023/09/19 08:29:27;;;;;;;37.73;36.13;;;22.60;90.10;;;;;;5071319;28;20574;-47
2023/09/19 08:31:55;;;;;;;40.13;38.30;;;22.70;90.20;;;;;;5070444;28;20436;-46
2023/09/19 08:34:23;;;;;;;38.83;37.00;;;22.60;90.20;;;;;;5070857;28;20498;-46
2023/09/19 08:36:52;;;;;;;37.43;35.73;;;22.60;90.20;;;;;;5070936;28;20826;-46
2023/09/19 08:39:20;;;;;;;36.47;34.90;;;22.60;90.30;;;;;;5071071;28;20447;-48
2023/09/19 08:41:47;;;;;;;37.03;35.53;;;22.60;90.30;;;;;;5071194;28;20480;-47
2023/09/19 08:44:14;;;;;;;38.60;37.00;;;22.60;90.30;;;;;;5070869;28;20514;-47
2023/09/19 08:46:43;;;;;;;39.07;37.30;;;22.60;90.30;;;;;;5070692;28;20571;-49
2023/09/19 08:49:19;;;;;;;37.10;35.50;;;22.60;90.30;;;;;;5070896;28;20451;-46
2023/09/19 08:51:46;;;;;;;40.00;38.20;;;22.60;90.30;;;;;;5071023;28;20470;-46
2023/09/19 08:54:23;;;;;;;38.57;36.43;;;22.60;90.30;;;;;;5070794;28;20542;-47
2023/09/19 08:56:52;;;;;;;40.03;38.27;;;22.60;90.30;;;;;;5070812;28;20439;-46
2023/09/19 08:59:24;;;;;;;37.13;35.43;;;22.60;90.40;;;;;;5070944;28;20439;-46
2023/09/19 09:01:53;;;;;;;36.17;34.43;;;22.60;90.40;;;;;;5070861;28;20512;-47
2023/09/19 09:04:21;;;;;;;37.43;35.73;;;22.60;90.30;;;;;;5070532;28;20845;-47
2023/09/19 09:06:53;;;;;;;36.70;34.90;;;22.60;90.30;;;;;;5070528;28;21028;-47
2023/09/19 09:09:20;;;;;;;38.87;37.03;;;22.60;90.20;;;;;;5070837;28;20934;-47
2023/09/19 09:11:51;;;;;;;38.90;36.73;;;22.60;90.10;;;;;;5070574;28;20943;-49
2023/09/19 09:14:19;;;;;;;39.27;37.57;;;22.60;90.10;;;;;;5070766;28;20490;-47
2023/09/19 09:16:48;;;;;;;38.53;36.63;;;22.60;90.10;;;;;;5070596;28;20526;-47
2023/09/19 09:19:23;;;;;;;38.07;36.30;;;22.60;90.00;;;;;;5070681;28;20443;-47
2023/09/19 09:21:51;;;;;;;37.90;36.27;;;22.60;90.00;;;;;;5070690;28;20871;-46
2023/09/19 09:24:33;;;;;;;40.00;38.20;;;22.60;89.90;;;;;;5070190;28;20496;-47
2023/09/19 09:27:05;;;;;;;40.13;38.43;;;22.60;89.80;;;;;;5070391;28;21057;-46
2023/09/19 09:29:46;;;;;;;38.57;36.60;;;22.60;89.80;;;;;;5070579;28;20505;-46
2023/09/19 09:32:21;;;;;;;38.50;37.00;;;22.60;89.80;;;;;;5056270;28;20768;-46
2023/09/19 09:34:50;;;;;;;39.10;37.50;;;22.60;89.90;;;;;;5070220;28;20490;-47
2023/09/19 09:37:19;;;;;;;39.00;37.30;;;22.50;89.60;;;;;;5070645;28;20467;-46
2023/09/19 09:39:58;;;;;;;39.20;37.17;;;22.60;89.40;;;;;;5070340;28;20443;-49
2023/09/19 09:42:35;;;;;;;40.93;38.80;;;22.50;89.40;;;;;;5070476;28;20443;-47
2023/09/19 09:45:28;;;;;;;39.50;37.13;;;22.50;89.50;;;;;;5071985;28;20811;-47
2023/09/19 09:47:55;;;;;;;38.90;37.20;;;22.50;89.60;;;;;;5071385;28;20482;-47
2023/09/19 09:50:29;;;;;;;39.90;38.30;;;22.60;89.70;;;;;;5073795;28;20457;-47
2023/09/19 09:53:07;;;;;;;39.40;37.53;;;22.60;89.80;;;;;;5073614;28;20523;-56
2023/09/19 09:55:59;;;;;;;40.50;38.80;;;22.60;89.80;;;;;;5073957;28;20497;-46
2023/09/19 09:58:29;;;;;;;36.47;34.90;;;22.60;89.80;;;;;;5062765;28;20446;-46
2023/09/19 10:00:58;;;;;;;40.47;38.37;;;22.60;89.70;;;;;;5073628;28;20449;-47
2023/09/19 10:03:33;;;;;;;37.93;36.43;;;22.60;89.60;;;;;;5073468;28;20459;-47
2023/09/19 10:06:09;;;;;;;39.67;38.07;;;22.60;89.40;;;;;;5073786;28;20465;-47
2023/09/19 10:08:36;;;;;;;40.30;38.50;;;22.60;89.30;;;;;;5073696;28;20503;-50
2023/09/19 10:11:16;;;;;;;37.47;35.77;;;22.60;89.20;;;;;;5073553;28;20785;-50
2023/09/19 10:13:47;;;;;;;37.90;36.20;;;22.50;89.10;;;;;;5073114;28;20482;-51
2023/09/19 10:16:18;;;;;;;39.33;37.73;;;22.60;89.00;;;;;;5073458;28;20947;-47
2023/09/19 10:18:47;;;;;;;39.40;37.70;;;22.50;88.80;;;;;;5073417;28;20442;-47
2023/09/19 10:21:14;;;;;;;39.10;37.20;;;22.60;88.80;;;;;;5073245;28;20493;-47
2023/09/19 10:23:45;;;;;;;41.93;39.93;;;22.50;88.70;;;;;;5094309;22;20516;-52
2023/09/19 10:26:12;;;;;;;40.20;38.40;;;22.50;88.60;;;;;;5054035;28;20970;-48
2023/09/19 10:28:40;;;;;;;38.93;37.00;;;22.50;88.50;;;;;;5061394;28;21029;-47
2023/09/19 10:31:14;;;;;;;41.30;39.50;;;22.60;88.50;;;;;;5064621;28;20475;-47
2023/09/19 10:33:42;;;;;;;39.20;37.40;;;22.50;88.00;;;;;;5064913;28;20459;-47
2023/09/19 10:36:12;;;;;;;40.93;39.27;;;22.60;88.20;;;;;;5064866;28;20964;-48
2023/09/19 10:38:44;;;;;;;36.67;34.90;;;22.60;88.20;;;;;;5064810;28;20451;-47
2023/09/19 10:41:12;;;;;;;36.00;34.30;;;22.50;88.10;;;;;;5053451;28;20480;-47
2023/09/19 10:43:44;;;;;;;36.10;34.50;;;22.50;88.20;;;;;;5060964;28;20464;-52
2023/09/19 10:46:13;;;;;;;40.07;38.37;;;22.50;88.10;;;;;;5053363;28;20444;-50
2023/09/19 10:48:43;;;;;;;35.40;34.00;;;22.60;88.30;;;;;;5061168;28;21044;-47
2023/09/19 10:51:13;;;;;;;38.90;37.23;;;22.50;88.10;;;;;;5053193;28;20448;-48
2023/09/19 10:53:48;;;;;;;38.33;36.53;;;22.60;88.10;;;;;;5060774;28;20495;-48
2023/09/19 10:56:20;;;;;;;38.47;36.77;;;22.60;88.10;;;;;;5053167;28;20470;-47
2023/09/19 10:58:48;;;;;;;37.43;35.93;;;22.50;87.90;;;;;;5061224;28;20441;-47
2023/09/19 11:01:18;;;;;;;38.67;37.07;;;22.60;88.10;;;;;;5064480;28;20455;-47
2023/09/19 11:03:45;;;;;;;38.50;36.80;;;22.50;87.80;;;;;;5063902;28;20468;-49
2023/09/19 11:06:15;;;;;;;39.37;37.57;;;22.60;87.80;;;;;;5060812;28;20444;-49
2023/09/19 11:11:53;;;;;;;37.43;35.77;;;22.60;87.60;;;;;;5059237;28;20782;-47
2023/09/19 11:14:31;;;;;;;38.77;36.67;;;22.60;87.20;;;;;;5063876;28;20982;-48
2023/09/19 11:17:41;;;;;;;37.63;36.03;;;22.60;87.00;;;;;;5062063;28;20474;-47
2023/09/19 11:23:28;;;;;;;39.87;37.77;;;22.60;86.70;;;;;;5058943;28;20544;-47
2023/09/19 11:25:55;;;;;;;35.80;33.97;;;22.60;86.60;;;;;;5061780;28;20920;-48
2023/09/19 11:28:36;;;;;;;35.90;34.20;;;22.60;86.10;;;;;;5063732;28;21028;-50
2023/09/19 11:31:56;;;;;;;36.90;35.30;;;22.50;86.10;;;;;;5061234;28;20446;-47
2023/09/19 11:34:48;;;;;;;38.80;37.20;;;22.60;85.90;;;;;;5053563;28;20543;-48
2023/09/19 11:38:10;;;;;;;38.00;36.30;;;22.50;85.40;;;;;;5052813;28;20514;-48
2023/09/19 11:40:39;;;;;;;37.93;36.20;;;22.50;85.30;;;;;;5055730;28;20815;-48
2023/09/19 11:43:33;;;;;;;37.53;35.63;;;22.50;84.90;;;;;;5062751;28;20478;-47
2023/09/19 11:46:09;;;;;;;35.37;33.77;;;22.60;84.90;;;;;;5051735;28;20444;-47
2023/09/19 11:48:38;;;;;;;37.90;36.10;;;22.60;84.70;;;;;;5060246;28;20508;-47
2023/09/19 11:51:27;;;;;;;36.60;34.90;;;22.60;84.90;;;;;;5062446;28;20523;-49
2023/09/19 11:53:55;;;;;;;37.97;36.27;;;22.60;84.70;;;;;;5056564;28;20871;-47
2023/09/19 11:56:27;;;;;;;38.47;36.63;;;22.60;84.20;;;;;;5059832;28;20468;-47
2023/09/19 11:58:55;;;;;;;37.93;36.33;;;22.60;84.10;;;;;;5060975;28;20432;-47
2023/09/19 12:01:25;;;;;;;38.27;36.67;;;22.60;83.80;;;;;;5063147;28;20469;-49
2023/09/19 12:03:57;;;;;;;36.80;35.00;;;22.60;83.80;;;;;;5062090;28;20457;-47
2023/09/19 12:06:26;;;;;;;35.30;33.80;;;22.60;83.80;;;;;;5059332;28;20436;-47
2023/09/19 12:08:55;;;;;;;36.47;34.60;;;22.70;83.60;;;;;;5060282;28;20510;-47
2023/09/19 12:11:24;;;;;;;34.40;32.90;;;22.70;83.70;;;;;;5062943;28;20500;-47
2023/09/19 12:13:53;;;;;;;35.73;34.13;;;22.70;83.50;;;;;;5062023;28;20542;-51
2023/09/19 12:16:22;;;;;;;38.23;36.73;;;22.70;83.00;;;;;;5059728;28;20451;-48
2023/09/19 12:18:51;;;;;;;37.27;35.47;;;22.70;82.90;;;;;;5059982;28;20464;-48
2023/09/19 12:21:31;;;;;;;35.27;33.77;;;22.70;83.10;;;;;;5062945;28;20436;-51
2023/09/19 12:24:19;;;;;;;35.83;34.30;;;22.70;83.00;;;;;;5062653;28;20472;-47
2023/09/19 12:26:48;;;;;;;36.90;35.23;;;22.70;82.60;;;;;;5063010;28;20489;-47
2023/09/19 12:29:17;;;;;;;37.00;35.47;;;22.70;82.60;;;;;;5062998;28;20479;-52
2023/09/19 12:31:55;;;;;;;38.93;37.23;;;22.80;82.70;;;;;;5062830;28;20443;-47
2023/09/19 12:34:26;;;;;;;39.07;37.30;;;22.80;82.60;;;;;;5052220;28;20977;-48
2023/09/19 12:37:06;;;;;;;35.50;33.70;;;22.80;82.10;;;;;;5060173;28;20520;-49
2023/09/19 12:39:33;;;;;;;37.43;35.73;;;22.80;81.70;;;;;;5062941;28;20788;-47
2023/09/19 12:42:04;;;;;;;36.77;35.17;;;22.90;82.00;;;;;;5060850;28;20474;-50
2023/09/19 12:44:31;;;;;;;36.97;35.37;;;22.80;82.10;;;;;;5059098;28;20460;-47
2023/09/19 12:46:59;;;;;;;42.20;40.40;;;22.90;82.10;;;;;;5060586;28;20468;-48
2023/09/19 12:49:27;;;;;;;40.53;38.63;;;22.90;82.00;;;;;;5062598;28;20849;-49